sensor_id;sensor_type;location;lat;lon;timestamp;temperature;humidity
38684;DHT22;24910;53.248;-6.134;2022-10-16T00:02:02;11.10;76.80
38684;DHT22;24910;53.248;-6.134;2022-10-16T00:04:31;11.10;76.80
38684;DHT22;24910;53.248;-6.134;2022-10-16T00:07:00;11.10;76.80
38684;DHT22;24910;53.248;-6.134;2022-10-16T00:09:29;11.10;76.90
38684;DHT22;24910;53.248;-6.134;2022-10-16T00:11:59;11.10;76.90
38684;DHT22;24910;53.248;-6.134;2022-10-16T00:14:28;11.10;76.90
38684;DHT22;24910;53.248;-6.134;2022-10-16T00:16:58;11.10;77.00
38684;DHT22;24910;53.248;-6.134;2022-10-16T00:19:27;11.00;76.90
38684;DHT22;24910;53.248;-6.134;2022-10-16T00:21:56;11.00;76.90
38684;DHT22;24910;53.248;-6.134;2022-10-16T00:24:43;11.00;76.90
38684;DHT22;24910;53.248;-6.134;2022-10-16T00:27:12;11.00;76.90
38684;DHT22;24910;53.248;-6.134;2022-10-16T00:29:41;11.00;76.80
38684;DHT22;24910;53.248;-6.134;2022-10-16T00:32:12;11.00;76.70
38684;DHT22;24910;53.248;-6.134;2022-10-16T00:34:41;11.00;76.50
38684;DHT22;24910;53.248;-6.134;2022-10-16T00:37:10;11.00;76.30
38684;DHT22;24910;53.248;-6.134;2022-10-16T00:39:39;11.00;76.20
38684;DHT22;24910;53.248;-6.134;2022-10-16T00:42:11;11.00;76.10
38684;DHT22;24910;53.248;-6.134;2022-10-16T00:44:46;11.00;76.00
38684;DHT22;24910;53.248;-6.134;2022-10-16T00:47:22;11.00;75.90
38684;DHT22;24910;53.248;-6.134;2022-10-16T00:49:58;11.00;75.80
38684;DHT22;24910;53.248;-6.134;2022-10-16T00:52:27;11.00;75.80
38684;DHT22;24910;53.248;-6.134;2022-10-16T00:54:57;11.00;75.60
38684;DHT22;24910;53.248;-6.134;2022-10-16T00:57:26;11.00;75.60
38684;DHT22;24910;53.248;-6.134;2022-10-16T00:59:57;11.00;75.50
38684;DHT22;24910;53.248;-6.134;2022-10-16T01:02:27;11.00;75.50
38684;DHT22;24910;53.248;-6.134;2022-10-16T01:04:56;11.00;75.40
38684;DHT22;24910;53.248;-6.134;2022-10-16T01:07:34;11.00;75.40
38684;DHT22;24910;53.248;-6.134;2022-10-16T01:10:12;11.00;75.40
38684;DHT22;24910;53.248;-6.134;2022-10-16T01:12:48;11.00;75.50
38684;DHT22;24910;53.248;-6.134;2022-10-16T01:15:25;11.00;75.60
38684;DHT22;24910;53.248;-6.134;2022-10-16T01:18:01;11.00;76.60
38684;DHT22;24910;53.248;-6.134;2022-10-16T01:20:36;11.00;75.80
38684;DHT22;24910;53.248;-6.134;2022-10-16T01:23:19;10.90;75.80
38684;DHT22;24910;53.248;-6.134;2022-10-16T01:26:02;10.90;75.90
38684;DHT22;24910;53.248;-6.134;2022-10-16T01:28:42;10.90;75.80
38684;DHT22;24910;53.248;-6.134;2022-10-16T01:31:17;11.00;75.70
38684;DHT22;24910;53.248;-6.134;2022-10-16T01:33:50;11.00;76.10
38684;DHT22;24910;53.248;-6.134;2022-10-16T01:36:25;10.90;75.60
38684;DHT22;24910;53.248;-6.134;2022-10-16T01:38:56;10.90;75.60
38684;DHT22;24910;53.248;-6.134;2022-10-16T01:41:33;10.90;75.50
38684;DHT22;24910;53.248;-6.134;2022-10-16T01:44:07;10.90;75.50
38684;DHT22;24910;53.248;-6.134;2022-10-16T01:46:39;10.90;75.40
38684;DHT22;24910;53.248;-6.134;2022-10-16T01:49:09;10.90;75.30
38684;DHT22;24910;53.248;-6.134;2022-10-16T01:51:39;10.90;75.30
38684;DHT22;24910;53.248;-6.134;2022-10-16T01:54:09;10.90;75.40
38684;DHT22;24910;53.248;-6.134;2022-10-16T01:56:41;10.90;75.40
38684;DHT22;24910;53.248;-6.134;2022-10-16T01:59:14;10.90;75.60
38684;DHT22;24910;53.248;-6.134;2022-10-16T02:01:47;10.90;75.80
38684;DHT22;24910;53.248;-6.134;2022-10-16T02:04:22;10.90;75.90
38684;DHT22;24910;53.248;-6.134;2022-10-16T02:06:53;10.90;76.10
38684;DHT22;24910;53.248;-6.134;2022-10-16T02:09:22;10.80;76.10
38684;DHT22;24910;53.248;-6.134;2022-10-16T02:11:53;10.90;76.30
38684;DHT22;24910;53.248;-6.134;2022-10-16T02:14:25;10.80;76.40
38684;DHT22;24910;53.248;-6.134;2022-10-16T02:16:54;10.80;76.60
38684;DHT22;24910;53.248;-6.134;2022-10-16T02:19:23;10.80;76.70
38684;DHT22;24910;53.248;-6.134;2022-10-16T02:21:55;10.80;76.60
38684;DHT22;24910;53.248;-6.134;2022-10-16T02:24:31;10.80;76.60
38684;DHT22;24910;53.248;-6.134;2022-10-16T02:27:05;10.80;76.80
38684;DHT22;24910;53.248;-6.134;2022-10-16T02:29:39;10.80;76.80
38684;DHT22;24910;53.248;-6.134;2022-10-16T02:32:13;10.80;76.70
38684;DHT22;24910;53.248;-6.134;2022-10-16T02:34:45;10.80;76.60
38684;DHT22;24910;53.248;-6.134;2022-10-16T02:37:14;10.80;76.60
38684;DHT22;24910;53.248;-6.134;2022-10-16T02:39:44;10.80;76.60
38684;DHT22;24910;53.248;-6.134;2022-10-16T02:42:13;10.80;76.60
38684;DHT22;24910;53.248;-6.134;2022-10-16T02:44:44;10.80;76.50
38684;DHT22;24910;53.248;-6.134;2022-10-16T02:47:13;10.70;76.30
38684;DHT22;24910;53.248;-6.134;2022-10-16T02:49:42;10.70;76.20
38684;DHT22;24910;53.248;-6.134;2022-10-16T02:52:11;10.70;76.10
38684;DHT22;24910;53.248;-6.134;2022-10-16T02:54:40;10.70;76.00
38684;DHT22;24910;53.248;-6.134;2022-10-16T02:57:09;10.70;76.00
38684;DHT22;24910;53.248;-6.134;2022-10-16T02:59:39;10.80;75.90
38684;DHT22;24910;53.248;-6.134;2022-10-16T03:02:09;10.70;75.70
38684;DHT22;24910;53.248;-6.134;2022-10-16T03:04:38;10.70;75.40
38684;DHT22;24910;53.248;-6.134;2022-10-16T03:07:07;10.70;75.20
38684;DHT22;24910;53.248;-6.134;2022-10-16T03:09:36;10.70;74.90
38684;DHT22;24910;53.248;-6.134;2022-10-16T03:12:05;10.70;74.60
38684;DHT22;24910;53.248;-6.134;2022-10-16T03:14:34;10.70;74.40
38684;DHT22;24910;53.248;-6.134;2022-10-16T03:17:03;10.70;74.20
38684;DHT22;24910;53.248;-6.134;2022-10-16T03:19:34;10.70;74.10
38684;DHT22;24910;53.248;-6.134;2022-10-16T03:22:03;10.70;74.00
38684;DHT22;24910;53.248;-6.134;2022-10-16T03:24:32;10.70;73.90
38684;DHT22;24910;53.248;-6.134;2022-10-16T03:27:01;10.60;73.90
38684;DHT22;24910;53.248;-6.134;2022-10-16T03:29:30;10.60;73.90
38684;DHT22;24910;53.248;-6.134;2022-10-16T03:32:00;10.60;73.80
38684;DHT22;24910;53.248;-6.134;2022-10-16T03:34:30;10.60;73.80
38684;DHT22;24910;53.248;-6.134;2022-10-16T03:37:00;10.60;73.80
38684;DHT22;24910;53.248;-6.134;2022-10-16T03:39:29;10.60;73.80
38684;DHT22;24910;53.248;-6.134;2022-10-16T03:41:58;10.50;73.70
38684;DHT22;24910;53.248;-6.134;2022-10-16T03:44:27;10.60;73.70
38684;DHT22;24910;53.248;-6.134;2022-10-16T03:46:56;10.60;73.70
38684;DHT22;24910;53.248;-6.134;2022-10-16T03:49:25;10.60;73.70
38684;DHT22;24910;53.248;-6.134;2022-10-16T03:51:54;10.60;73.60
38684;DHT22;24910;53.248;-6.134;2022-10-16T03:54:24;10.60;73.60
38684;DHT22;24910;53.248;-6.134;2022-10-16T03:56:53;10.60;73.70
38684;DHT22;24910;53.248;-6.134;2022-10-16T03:59:22;10.60;73.60
38684;DHT22;24910;53.248;-6.134;2022-10-16T04:01:51;10.60;73.70
38684;DHT22;24910;53.248;-6.134;2022-10-16T04:04:20;10.60;73.80
38684;DHT22;24910;53.248;-6.134;2022-10-16T04:06:49;10.60;73.90
38684;DHT22;24910;53.248;-6.134;2022-10-16T04:09:18;10.60;73.80
38684;DHT22;24910;53.248;-6.134;2022-10-16T04:11:49;10.60;73.80
38684;DHT22;24910;53.248;-6.134;2022-10-16T04:14:18;10.60;73.80
38684;DHT22;24910;53.248;-6.134;2022-10-16T04:16:47;10.60;73.80
38684;DHT22;24910;53.248;-6.134;2022-10-16T04:19:16;10.60;73.80
38684;DHT22;24910;53.248;-6.134;2022-10-16T04:21:45;10.60;73.70
38684;DHT22;24910;53.248;-6.134;2022-10-16T04:24:14;10.60;73.70
38684;DHT22;24910;53.248;-6.134;2022-10-16T04:26:43;10.60;73.70
38684;DHT22;24910;53.248;-6.134;2022-10-16T04:29:13;10.60;73.70
38684;DHT22;24910;53.248;-6.134;2022-10-16T04:31:42;10.60;73.70
38684;DHT22;24910;53.248;-6.134;2022-10-16T04:34:11;10.60;73.70
38684;DHT22;24910;53.248;-6.134;2022-10-16T04:36:40;10.60;73.70
38684;DHT22;24910;53.248;-6.134;2022-10-16T04:39:09;10.60;73.70
38684;DHT22;24910;53.248;-6.134;2022-10-16T04:41:38;10.60;73.80
38684;DHT22;24910;53.248;-6.134;2022-10-16T04:44:07;10.50;73.80
38684;DHT22;24910;53.248;-6.134;2022-10-16T04:46:38;10.50;73.90
38684;DHT22;24910;53.248;-6.134;2022-10-16T04:49:07;10.50;73.90
38684;DHT22;24910;53.248;-6.134;2022-10-16T04:51:36;10.50;74.10
38684;DHT22;24910;53.248;-6.134;2022-10-16T04:54:05;10.60;74.00
38684;DHT22;24910;53.248;-6.134;2022-10-16T04:56:34;10.60;74.10
38684;DHT22;24910;53.248;-6.134;2022-10-16T04:59:10;10.60;74.10
38684;DHT22;24910;53.248;-6.134;2022-10-16T05:01:40;10.60;74.00
38684;DHT22;24910;53.248;-6.134;2022-10-16T05:04:09;10.60;73.80
38684;DHT22;24910;53.248;-6.134;2022-10-16T05:06:39;10.70;73.80
38684;DHT22;24910;53.248;-6.134;2022-10-16T05:09:08;10.70;73.70
38684;DHT22;24910;53.248;-6.134;2022-10-16T05:11:37;10.70;73.60
38684;DHT22;24910;53.248;-6.134;2022-10-16T05:14:06;10.70;73.40
38684;DHT22;24910;53.248;-6.134;2022-10-16T05:16:42;10.70;73.40
38684;DHT22;24910;53.248;-6.134;2022-10-16T05:19:11;10.70;73.30
38684;DHT22;24910;53.248;-6.134;2022-10-16T05:21:55;10.70;73.40
38684;DHT22;24910;53.248;-6.134;2022-10-16T05:24:24;10.70;73.40
38684;DHT22;24910;53.248;-6.134;2022-10-16T05:26:54;10.70;73.40
38684;DHT22;24910;53.248;-6.134;2022-10-16T05:29:23;10.70;73.40
38684;DHT22;24910;53.248;-6.134;2022-10-16T05:31:53;10.70;73.50
38684;DHT22;24910;53.248;-6.134;2022-10-16T05:34:22;10.70;74.40
38684;DHT22;24910;53.248;-6.134;2022-10-16T05:36:51;10.70;73.50
38684;DHT22;24910;53.248;-6.134;2022-10-16T05:39:20;10.70;73.60
38684;DHT22;24910;53.248;-6.134;2022-10-16T05:41:50;10.70;73.40
38684;DHT22;24910;53.248;-6.134;2022-10-16T05:44:19;10.80;73.40
38684;DHT22;24910;53.248;-6.134;2022-10-16T05:46:49;10.80;73.30
38684;DHT22;24910;53.248;-6.134;2022-10-16T05:49:19;10.80;73.30
38684;DHT22;24910;53.248;-6.134;2022-10-16T05:51:48;10.80;73.20
38684;DHT22;24910;53.248;-6.134;2022-10-16T05:54:17;10.80;73.40
38684;DHT22;24910;53.248;-6.134;2022-10-16T05:56:46;10.70;73.40
38684;DHT22;24910;53.248;-6.134;2022-10-16T05:59:15;10.70;73.50
38684;DHT22;24910;53.248;-6.134;2022-10-16T06:01:44;10.70;73.60
38684;DHT22;24910;53.248;-6.134;2022-10-16T06:04:13;10.70;73.70
38684;DHT22;24910;53.248;-6.134;2022-10-16T06:06:43;10.70;73.60
38684;DHT22;24910;53.248;-6.134;2022-10-16T06:09:12;10.70;73.60
38684;DHT22;24910;53.248;-6.134;2022-10-16T06:11:42;10.70;73.60
38684;DHT22;24910;53.248;-6.134;2022-10-16T06:14:11;10.70;73.60
38684;DHT22;24910;53.248;-6.134;2022-10-16T06:16:39;10.70;73.80
38684;DHT22;24910;53.248;-6.134;2022-10-16T06:19:08;10.70;73.90
38684;DHT22;24910;53.248;-6.134;2022-10-16T06:21:37;10.70;73.90
38684;DHT22;24910;53.248;-6.134;2022-10-16T06:24:08;10.60;73.90
38684;DHT22;24910;53.248;-6.134;2022-10-16T06:26:38;10.60;74.00
38684;DHT22;24910;53.248;-6.134;2022-10-16T06:29:08;10.60;74.10
38684;DHT22;24910;53.248;-6.134;2022-10-16T06:31:37;10.70;73.90
38684;DHT22;24910;53.248;-6.134;2022-10-16T06:34:08;10.70;73.90
38684;DHT22;24910;53.248;-6.134;2022-10-16T06:36:39;10.70;73.80
38684;DHT22;24910;53.248;-6.134;2022-10-16T06:39:10;10.70;73.70
38684;DHT22;24910;53.248;-6.134;2022-10-16T06:41:39;10.70;73.70
38684;DHT22;24910;53.248;-6.134;2022-10-16T06:44:15;10.70;73.70
38684;DHT22;24910;53.248;-6.134;2022-10-16T06:46:44;10.60;73.80
38684;DHT22;24910;53.248;-6.134;2022-10-16T06:49:13;10.60;73.90
38684;DHT22;24910;53.248;-6.134;2022-10-16T06:51:49;10.60;74.00
38684;DHT22;24910;53.248;-6.134;2022-10-16T06:54:19;10.60;74.00
38684;DHT22;24910;53.248;-6.134;2022-10-16T06:56:48;10.70;74.10
38684;DHT22;24910;53.248;-6.134;2022-10-16T06:59:17;10.70;75.00
38684;DHT22;24910;53.248;-6.134;2022-10-16T07:01:46;10.60;74.10
38684;DHT22;24910;53.248;-6.134;2022-10-16T07:04:15;10.70;74.10
38684;DHT22;24910;53.248;-6.134;2022-10-16T07:06:44;10.70;74.20
38684;DHT22;24910;53.248;-6.134;2022-10-16T07:09:13;10.70;74.20
38684;DHT22;24910;53.248;-6.134;2022-10-16T07:11:44;10.70;74.20
38684;DHT22;24910;53.248;-6.134;2022-10-16T07:14:15;10.70;74.20
38684;DHT22;24910;53.248;-6.134;2022-10-16T07:16:44;10.80;74.30
38684;DHT22;24910;53.248;-6.134;2022-10-16T07:19:14;10.80;74.30
38684;DHT22;24910;53.248;-6.134;2022-10-16T07:21:45;10.80;74.40
38684;DHT22;24910;53.248;-6.134;2022-10-16T07:24:15;10.80;74.40
38684;DHT22;24910;53.248;-6.134;2022-10-16T07:26:46;10.90;74.50
38684;DHT22;24910;53.248;-6.134;2022-10-16T07:29:17;10.90;74.60
38684;DHT22;24910;53.248;-6.134;2022-10-16T07:31:47;10.90;74.60
38684;DHT22;24910;53.248;-6.134;2022-10-16T07:34:17;10.90;74.60
38684;DHT22;24910;53.248;-6.134;2022-10-16T07:36:49;11.00;74.70
38684;DHT22;24910;53.248;-6.134;2022-10-16T07:39:18;11.00;74.80
38684;DHT22;24910;53.248;-6.134;2022-10-16T07:41:49;11.00;74.90
38684;DHT22;24910;53.248;-6.134;2022-10-16T07:44:17;11.00;75.10
38684;DHT22;24910;53.248;-6.134;2022-10-16T07:46:47;11.00;75.20
38684;DHT22;24910;53.248;-6.134;2022-10-16T07:49:15;11.10;75.30
38684;DHT22;24910;53.248;-6.134;2022-10-16T07:51:44;11.10;75.20
38684;DHT22;24910;53.248;-6.134;2022-10-16T07:54:13;11.20;75.30
38684;DHT22;24910;53.248;-6.134;2022-10-16T07:56:42;11.20;75.20
38684;DHT22;24910;53.248;-6.134;2022-10-16T07:59:13;11.30;75.30
38684;DHT22;24910;53.248;-6.134;2022-10-16T08:01:42;11.30;75.20
38684;DHT22;24910;53.248;-6.134;2022-10-16T08:04:11;11.40;75.10
38684;DHT22;24910;53.248;-6.134;2022-10-16T08:06:41;11.50;75.00
38684;DHT22;24910;53.248;-6.134;2022-10-16T08:09:10;11.50;75.00
38684;DHT22;24910;53.248;-6.134;2022-10-16T08:11:39;11.60;75.00
38684;DHT22;24910;53.248;-6.134;2022-10-16T08:14:08;11.70;75.00
38684;DHT22;24910;53.248;-6.134;2022-10-16T08:16:38;11.70;74.80
38684;DHT22;24910;53.248;-6.134;2022-10-16T08:19:08;11.80;74.60
38684;DHT22;24910;53.248;-6.134;2022-10-16T08:21:36;11.80;74.50
38684;DHT22;24910;53.248;-6.134;2022-10-16T08:24:05;11.90;74.40
38684;DHT22;24910;53.248;-6.134;2022-10-16T08:26:34;11.90;74.20
38684;DHT22;24910;53.248;-6.134;2022-10-16T08:29:03;12.00;74.30
38684;DHT22;24910;53.248;-6.134;2022-10-16T08:31:33;12.00;74.30
38684;DHT22;24910;53.248;-6.134;2022-10-16T08:34:03;12.10;74.40
38684;DHT22;24910;53.248;-6.134;2022-10-16T08:36:32;12.10;74.30
38684;DHT22;24910;53.248;-6.134;2022-10-16T08:39:01;12.10;74.30
38684;DHT22;24910;53.248;-6.134;2022-10-16T08:41:51;12.20;74.50
38684;DHT22;24910;53.248;-6.134;2022-10-16T08:44:50;12.30;74.70
38684;DHT22;24910;53.248;-6.134;2022-10-16T08:47:26;12.30;74.60
38684;DHT22;24910;53.248;-6.134;2022-10-16T08:49:59;12.40;74.60
38684;DHT22;24910;53.248;-6.134;2022-10-16T08:52:34;12.40;74.40
38684;DHT22;24910;53.248;-6.134;2022-10-16T08:55:05;12.40;74.20
38684;DHT22;24910;53.248;-6.134;2022-10-16T08:57:34;12.50;74.20
38684;DHT22;24910;53.248;-6.134;2022-10-16T09:00:12;12.50;74.20
38684;DHT22;24910;53.248;-6.134;2022-10-16T09:02:48;12.50;74.10
38684;DHT22;24910;53.248;-6.134;2022-10-16T09:05:28;12.50;74.10
38684;DHT22;24910;53.248;-6.134;2022-10-16T09:08:08;12.60;74.00
38684;DHT22;24910;53.248;-6.134;2022-10-16T09:10:47;12.60;74.00
38684;DHT22;24910;53.248;-6.134;2022-10-16T09:13:23;12.60;74.00
38684;DHT22;24910;53.248;-6.134;2022-10-16T09:16:01;12.60;74.00
38684;DHT22;24910;53.248;-6.134;2022-10-16T09:18:37;12.60;74.00
38684;DHT22;24910;53.248;-6.134;2022-10-16T09:21:15;12.70;74.00
38684;DHT22;24910;53.248;-6.134;2022-10-16T09:23:47;12.80;74.10
38684;DHT22;24910;53.248;-6.134;2022-10-16T09:26:17;12.80;74.10
38684;DHT22;24910;53.248;-6.134;2022-10-16T09:28:47;12.90;73.90
38684;DHT22;24910;53.248;-6.134;2022-10-16T09:31:18;13.00;73.70
38684;DHT22;24910;53.248;-6.134;2022-10-16T09:33:51;13.10;73.60
38684;DHT22;24910;53.248;-6.134;2022-10-16T09:36:25;13.10;73.30
38684;DHT22;24910;53.248;-6.134;2022-10-16T09:39:05;13.30;73.20
38684;DHT22;24910;53.248;-6.134;2022-10-16T09:41:35;13.40;73.20
38684;DHT22;24910;53.248;-6.134;2022-10-16T09:44:17;13.60;73.10
38684;DHT22;24910;53.248;-6.134;2022-10-16T09:46:47;13.70;72.80
38684;DHT22;24910;53.248;-6.134;2022-10-16T09:49:21;13.80;72.70
38684;DHT22;24910;53.248;-6.134;2022-10-16T09:52:03;13.80;72.50
38684;DHT22;24910;53.248;-6.134;2022-10-16T09:54:32;13.90;72.20
38684;DHT22;24910;53.248;-6.134;2022-10-16T09:57:05;13.80;72.00
38684;DHT22;24910;53.248;-6.134;2022-10-16T09:59:44;13.90;71.80
38684;DHT22;24910;53.248;-6.134;2022-10-16T10:02:15;13.80;71.60
38684;DHT22;24910;53.248;-6.134;2022-10-16T10:04:49;13.80;71.30
38684;DHT22;24910;53.248;-6.134;2022-10-16T10:07:24;13.80;71.30
38684;DHT22;24910;53.248;-6.134;2022-10-16T10:09:55;13.80;71.40
38684;DHT22;24910;53.248;-6.134;2022-10-16T10:12:27;13.70;71.50
38684;DHT22;24910;53.248;-6.134;2022-10-16T10:15:02;13.70;71.60
38684;DHT22;24910;53.248;-6.134;2022-10-16T10:17:32;13.70;71.80
38684;DHT22;24910;53.248;-6.134;2022-10-16T10:20:22;13.70;71.80
38684;DHT22;24910;53.248;-6.134;2022-10-16T10:22:52;13.60;71.70
38684;DHT22;24910;53.248;-6.134;2022-10-16T10:25:34;13.60;71.70
38684;DHT22;24910;53.248;-6.134;2022-10-16T10:31:14;13.60;71.80
38684;DHT22;24910;53.248;-6.134;2022-10-16T10:33:52;13.70;71.90
38684;DHT22;24910;53.248;-6.134;2022-10-16T10:36:29;13.60;72.00
38684;DHT22;24910;53.248;-6.134;2022-10-16T10:39:02;13.60;72.00
38684;DHT22;24910;53.248;-6.134;2022-10-16T10:45:16;13.50;72.00
38684;DHT22;24910;53.248;-6.134;2022-10-16T10:47:59;13.50;71.90
38684;DHT22;24910;53.248;-6.134;2022-10-16T10:50:38;13.40;71.70
38684;DHT22;24910;53.248;-6.134;2022-10-16T10:53:17;13.40;71.60
38684;DHT22;24910;53.248;-6.134;2022-10-16T10:55:54;13.40;71.50
38684;DHT22;24910;53.248;-6.134;2022-10-16T10:59:02;13.40;71.50
38684;DHT22;24910;53.248;-6.134;2022-10-16T11:01:41;13.40;71.40
38684;DHT22;24910;53.248;-6.134;2022-10-16T11:04:34;13.40;71.30
38684;DHT22;24910;53.248;-6.134;2022-10-16T11:07:11;13.40;71.10
38684;DHT22;24910;53.248;-6.134;2022-10-16T11:09:45;13.40;71.00
38684;DHT22;24910;53.248;-6.134;2022-10-16T11:12:20;13.40;70.50
38684;DHT22;24910;53.248;-6.134;2022-10-16T11:14:57;13.40;70.50
38684;DHT22;24910;53.248;-6.134;2022-10-16T11:17:29;13.40;70.40
38684;DHT22;24910;53.248;-6.134;2022-10-16T11:20:10;13.50;70.40
38684;DHT22;24910;53.248;-6.134;2022-10-16T11:22:44;13.50;70.40
38684;DHT22;24910;53.248;-6.134;2022-10-16T11:25:19;13.50;70.50
38684;DHT22;24910;53.248;-6.134;2022-10-16T11:27:55;13.50;70.60
38684;DHT22;24910;53.248;-6.134;2022-10-16T11:30:26;13.50;70.60
38684;DHT22;24910;53.248;-6.134;2022-10-16T11:33:05;13.40;70.60
38684;DHT22;24910;53.248;-6.134;2022-10-16T11:35:43;13.40;70.50
38684;DHT22;24910;53.248;-6.134;2022-10-16T11:38:19;13.40;70.50
38684;DHT22;24910;53.248;-6.134;2022-10-16T11:40:53;13.40;70.50
38684;DHT22;24910;53.248;-6.134;2022-10-16T11:43:29;13.40;70.50
38684;DHT22;24910;53.248;-6.134;2022-10-16T11:46:05;13.50;70.60
38684;DHT22;24910;53.248;-6.134;2022-10-16T11:48:41;13.40;70.50
38684;DHT22;24910;53.248;-6.134;2022-10-16T11:51:18;13.50;70.90
38684;DHT22;24910;53.248;-6.134;2022-10-16T11:53:53;13.50;71.20
38684;DHT22;24910;53.248;-6.134;2022-10-16T11:56:25;13.50;71.20
38684;DHT22;24910;53.248;-6.134;2022-10-16T11:59:00;13.50;71.30
38684;DHT22;24910;53.248;-6.134;2022-10-16T12:01:33;13.50;71.40
38684;DHT22;24910;53.248;-6.134;2022-10-16T12:04:16;13.50;71.40
38684;DHT22;24910;53.248;-6.134;2022-10-16T12:06:51;13.50;71.60
38684;DHT22;24910;53.248;-6.134;2022-10-16T12:09:24;13.50;71.60
38684;DHT22;24910;53.248;-6.134;2022-10-16T12:11:54;13.50;71.60
38684;DHT22;24910;53.248;-6.134;2022-10-16T12:14:37;13.50;71.70
38684;DHT22;24910;53.248;-6.134;2022-10-16T12:17:34;13.50;71.70
38684;DHT22;24910;53.248;-6.134;2022-10-16T12:20:23;13.50;71.70
38684;DHT22;24910;53.248;-6.134;2022-10-16T12:22:56;13.40;71.50
38684;DHT22;24910;53.248;-6.134;2022-10-16T12:25:28;13.40;71.50
38684;DHT22;24910;53.248;-6.134;2022-10-16T12:28:02;13.40;71.30
38684;DHT22;24910;53.248;-6.134;2022-10-16T12:30:35;13.40;71.20
38684;DHT22;24910;53.248;-6.134;2022-10-16T12:33:15;13.30;71.00
38684;DHT22;24910;53.248;-6.134;2022-10-16T12:35:48;13.30;70.80
38684;DHT22;24910;53.248;-6.134;2022-10-16T12:38:19;13.30;70.70
38684;DHT22;24910;53.248;-6.134;2022-10-16T12:40:57;13.20;70.40
38684;DHT22;24910;53.248;-6.134;2022-10-16T12:43:38;13.20;70.40
38684;DHT22;24910;53.248;-6.134;2022-10-16T12:46:24;13.10;70.40
38684;DHT22;24910;53.248;-6.134;2022-10-16T12:48:53;13.10;70.40
38684;DHT22;24910;53.248;-6.134;2022-10-16T12:51:35;13.10;70.40
38684;DHT22;24910;53.248;-6.134;2022-10-16T12:54:12;13.10;70.40
38684;DHT22;24910;53.248;-6.134;2022-10-16T12:56:51;13.10;70.50
38684;DHT22;24910;53.248;-6.134;2022-10-16T12:59:32;13.00;70.60
38684;DHT22;24910;53.248;-6.134;2022-10-16T13:05:21;13.10;70.80
38684;DHT22;24910;53.248;-6.134;2022-10-16T13:08:05;13.00;70.80
38684;DHT22;24910;53.248;-6.134;2022-10-16T13:10:41;13.00;70.90
38684;DHT22;24910;53.248;-6.134;2022-10-16T13:13:38;13.00;71.00
38684;DHT22;24910;53.248;-6.134;2022-10-16T13:16:17;13.00;71.00
38684;DHT22;24910;53.248;-6.134;2022-10-16T13:18:57;13.00;71.10
38684;DHT22;24910;53.248;-6.134;2022-10-16T13:21:39;13.00;71.20
38684;DHT22;24910;53.248;-6.134;2022-10-16T13:24:23;12.90;71.30
38684;DHT22;24910;53.248;-6.134;2022-10-16T13:26:59;13.00;71.40
38684;DHT22;24910;53.248;-6.134;2022-10-16T13:29:33;13.00;71.50
38684;DHT22;24910;53.248;-6.134;2022-10-16T13:32:11;13.00;71.60
38684;DHT22;24910;53.248;-6.134;2022-10-16T13:34:45;13.00;71.90
38684;DHT22;24910;53.248;-6.134;2022-10-16T13:37:20;13.00;72.10
38684;DHT22;24910;53.248;-6.134;2022-10-16T13:39:50;13.00;72.30
38684;DHT22;24910;53.248;-6.134;2022-10-16T13:42:23;13.00;72.40
38684;DHT22;24910;53.248;-6.134;2022-10-16T13:44:56;13.00;72.60
38684;DHT22;24910;53.248;-6.134;2022-10-16T13:47:26;13.00;72.70
38684;DHT22;24910;53.248;-6.134;2022-10-16T13:50:00;13.00;72.90
38684;DHT22;24910;53.248;-6.134;2022-10-16T13:52:31;13.00;73.20
38684;DHT22;24910;53.248;-6.134;2022-10-16T13:55:01;13.10;73.60
38684;DHT22;24910;53.248;-6.134;2022-10-16T13:57:30;13.10;73.90
38684;DHT22;24910;53.248;-6.134;2022-10-16T13:59:59;13.10;74.30
38684;DHT22;24910;53.248;-6.134;2022-10-16T14:02:33;13.10;74.70
38684;DHT22;24910;53.248;-6.134;2022-10-16T14:05:03;13.10;75.10
38684;DHT22;24910;53.248;-6.134;2022-10-16T14:07:35;13.10;75.40
38684;DHT22;24910;53.248;-6.134;2022-10-16T14:10:05;13.20;75.90
38684;DHT22;24910;53.248;-6.134;2022-10-16T14:12:35;13.20;76.10
38684;DHT22;24910;53.248;-6.134;2022-10-16T14:15:15;13.20;76.40
38684;DHT22;24910;53.248;-6.134;2022-10-16T14:17:50;13.10;76.60
38684;DHT22;24910;53.248;-6.134;2022-10-16T14:20:24;13.10;76.70
38684;DHT22;24910;53.248;-6.134;2022-10-16T14:23:04;13.10;76.80
38684;DHT22;24910;53.248;-6.134;2022-10-16T14:25:33;13.10;77.00
38684;DHT22;24910;53.248;-6.134;2022-10-16T14:28:13;13.10;77.00
38684;DHT22;24910;53.248;-6.134;2022-10-16T14:30:51;13.10;77.00
38684;DHT22;24910;53.248;-6.134;2022-10-16T14:33:25;13.10;77.00
38684;DHT22;24910;53.248;-6.134;2022-10-16T14:36:03;13.10;77.00
38684;DHT22;24910;53.248;-6.134;2022-10-16T14:38:37;13.20;77.10
38684;DHT22;24910;53.248;-6.134;2022-10-16T14:41:07;13.20;77.20
38684;DHT22;24910;53.248;-6.134;2022-10-16T14:43:37;13.20;77.40
38684;DHT22;24910;53.248;-6.134;2022-10-16T14:46:12;13.20;77.70
38684;DHT22;24910;53.248;-6.134;2022-10-16T14:48:47;13.30;78.30
38684;DHT22;24910;53.248;-6.134;2022-10-16T14:51:18;13.30;77.90
38684;DHT22;24910;53.248;-6.134;2022-10-16T14:53:49;13.40;78.10
38684;DHT22;24910;53.248;-6.134;2022-10-16T14:56:29;13.40;78.10
38684;DHT22;24910;53.248;-6.134;2022-10-16T14:59:00;13.40;78.10
38684;DHT22;24910;53.248;-6.134;2022-10-16T15:01:29;13.40;77.90
38684;DHT22;24910;53.248;-6.134;2022-10-16T15:03:58;13.50;77.70
38684;DHT22;24910;53.248;-6.134;2022-10-16T15:06:27;13.50;77.40
38684;DHT22;24910;53.248;-6.134;2022-10-16T15:08:58;13.50;77.30
38684;DHT22;24910;53.248;-6.134;2022-10-16T15:11:27;13.60;77.20
38684;DHT22;24910;53.248;-6.134;2022-10-16T15:13:56;13.50;77.00
38684;DHT22;24910;53.248;-6.134;2022-10-16T15:16:25;13.60;77.10
38684;DHT22;24910;53.248;-6.134;2022-10-16T15:18:54;13.60;77.20
38684;DHT22;24910;53.248;-6.134;2022-10-16T15:21:25;13.60;77.20
38684;DHT22;24910;53.248;-6.134;2022-10-16T15:23:54;13.60;77.10
38684;DHT22;24910;53.248;-6.134;2022-10-16T15:26:27;13.60;77.10
38684;DHT22;24910;53.248;-6.134;2022-10-16T15:28:56;13.60;76.90
38684;DHT22;24910;53.248;-6.134;2022-10-16T15:31:25;13.60;76.80
38684;DHT22;24910;53.248;-6.134;2022-10-16T15:33:55;13.60;76.60
38684;DHT22;24910;53.248;-6.134;2022-10-16T15:36:30;13.70;76.70
38684;DHT22;24910;53.248;-6.134;2022-10-16T15:39:01;13.60;76.60
38684;DHT22;24910;53.248;-6.134;2022-10-16T15:41:32;13.70;76.70
38684;DHT22;24910;53.248;-6.134;2022-10-16T15:44:01;13.70;76.90
38684;DHT22;24910;53.248;-6.134;2022-10-16T15:46:30;13.70;77.00
38684;DHT22;24910;53.248;-6.134;2022-10-16T15:49:01;13.70;77.30
38684;DHT22;24910;53.248;-6.134;2022-10-16T15:51:30;13.60;77.60
38684;DHT22;24910;53.248;-6.134;2022-10-16T15:54:00;13.60;78.10
38684;DHT22;24910;53.248;-6.134;2022-10-16T15:56:31;13.60;78.50
38684;DHT22;24910;53.248;-6.134;2022-10-16T15:59:00;13.60;78.80